Terminal Aerodrome Forecast
Issued by NWS

Home | Current Version | Previous Version | Text Only | Print | Product List | Glossary On
Versions: 1 2 3 4 5 6 7 8 9 10 11 12 13 14 15 16 17 18 19 20 21 22 23 24 25 26 27 28 29 30
000
FTUS43 KFGF 242339
TAFDVL
TAF
KDVL 242339Z 2500/2524 06006KT P6SM OVC018
     FM250400 11006KT P6SM BKN015
     FM250600 13006KT 5SM BR BKN010
     FM250700 14007KT P6SM BKN010
     FM250900 15008KT P6SM SCT008
     FM251000 15009KT 3SM BR SCT008
     FM251200 15010KT 2SM BR BKN003=

USA.gov is the U.S. government's official web portal to all federal, state and local government web resources and services.